createdAt,value
2022-11-16T00:01:41.172Z,97483.09
2022-11-16T00:04:11.922Z,97474.59
2022-11-16T00:06:38.792Z,97471.78
2022-11-16T00:09:20.830Z,97471.09
2022-11-16T00:11:51.326Z,97464.00
2022-11-16T00:14:19.601Z,97469.25
2022-11-16T00:16:46.733Z,97463.81
2022-11-16T00:19:13.545Z,97454.09
2022-11-16T00:21:40.602Z,97451.47
2022-11-16T00:24:07.884Z,97448.38
2022-11-16T00:26:34.525Z,97447.59
2022-11-16T00:29:01.238Z,97450.78
2022-11-16T00:31:27.870Z,97451.75
2022-11-16T00:33:54.497Z,97447.53
2022-11-16T00:36:21.177Z,97445.69
2022-11-16T00:38:48.248Z,97444.66
2022-11-16T00:41:14.936Z,97447.06
2022-11-16T00:43:41.886Z,97439.56
2022-11-16T00:46:08.941Z,97438.69
2022-11-16T00:48:35.739Z,97439.69
2022-11-16T00:51:02.536Z,97439.47
2022-11-16T00:53:29.188Z,97431.38
2022-11-16T00:55:55.757Z,97425.53
2022-11-16T00:58:22.561Z,97422.09
2022-11-16T01:00:49.318Z,97429.75
2022-11-16T01:03:16.306Z,97431.38
2022-11-16T01:05:42.989Z,97431.59
2022-11-16T01:08:09.629Z,97421.44
2022-11-16T01:10:41.204Z,97418.34
2022-11-16T01:13:07.887Z,97414.09
2022-11-16T01:15:34.553Z,97410.09
2022-11-16T01:18:01.134Z,97413.53
2022-11-16T01:20:29.609Z,97412.16
2022-11-16T01:22:56.948Z,97410.31
2022-11-16T01:25:23.663Z,97414.56
2022-11-16T01:27:50.225Z,97413.09
2022-11-16T01:30:16.911Z,97407.47
2022-11-16T01:32:43.539Z,97399.16
2022-11-16T01:35:14.431Z,97394.69
2022-11-16T01:37:44.333Z,97395.47
2022-11-16T01:40:12.863Z,97387.53
2022-11-16T01:42:40.596Z,97389.78
2022-11-16T01:45:18.974Z,97386.34
2022-11-16T01:47:45.871Z,97386.34
2022-11-16T01:50:16.516Z,97371.59
2022-11-16T01:52:52.483Z,97374.00
2022-11-16T01:55:19.891Z,97366.34
2022-11-16T01:57:48.021Z,97367.34
2022-11-16T02:00:15.638Z,97363.72
2022-11-16T02:02:42.671Z,97356.63
2022-11-16T02:05:13.240Z,97364.28
2022-11-16T02:08:11.432Z,97364.41
2022-11-16T02:10:53.866Z,97352.50
2022-11-16T02:13:51.658Z,97346.22
2022-11-16T02:16:24.686Z,97348.50
2022-11-16T02:19:08.212Z,97345.06
2022-11-16T02:21:43.438Z,97345.06
2022-11-16T02:24:42.305Z,97338.56
2022-11-16T02:27:21.580Z,97335.09
2022-11-16T02:29:53.217Z,97321.41
2022-11-16T02:32:25.301Z,97311.66
2022-11-16T02:34:59.646Z,97300.13
2022-11-16T02:37:31.537Z,97303.78
2022-11-16T02:40:02.649Z,97302.16
2022-11-16T02:42:35.774Z,97302.97
2022-11-16T02:45:05.714Z,97297.94
2022-11-16T02:47:35.438Z,97295.09
2022-11-16T02:50:10.201Z,97298.28
2022-11-16T02:52:38.585Z,97301.72
2022-11-16T02:55:05.729Z,97283.31
2022-11-16T02:57:44.751Z,97268.91
2022-11-16T03:00:18.565Z,97273.50
2022-11-16T03:02:50.437Z,97273.72
2022-11-16T03:05:44.360Z,97282.84
2022-11-16T03:08:29.982Z,97285.50
2022-11-16T03:11:19.731Z,97281.59
2022-11-16T03:13:47.309Z,97276.00
2022-11-16T03:16:20.280Z,97268.91
2022-11-16T03:18:49.817Z,97274.41
2022-11-16T03:21:31.714Z,97273.59
2022-11-16T03:23:58.512Z,97272.22
2022-11-16T03:26:32.043Z,97281.72
2022-11-16T03:29:05.861Z,97280.09
2022-11-16T03:31:43.907Z,97275.44
2022-11-16T03:34:16.209Z,97277.03
2022-11-16T03:36:46.426Z,97280.47
2022-11-16T03:39:20.458Z,97265.47
2022-11-16T03:41:49.156Z,97267.53
2022-11-16T03:44:17.360Z,97268.31
2022-11-16T03:46:45.574Z,97255.16
2022-11-16T03:49:12.545Z,97249.91
2022-11-16T03:51:39.472Z,97245.00
2022-11-16T03:54:06.179Z,97228.63
2022-11-16T03:56:32.762Z,97219.72
2022-11-16T03:58:59.295Z,97230.25
2022-11-16T04:01:25.983Z,97226.81
2022-11-16T04:03:52.622Z,97215.47
2022-11-16T04:06:34.673Z,97217.09
2022-11-16T04:09:16.476Z,97216.06
2022-11-16T04:11:58.478Z,97208.31
2022-11-16T04:14:40.799Z,97199.03
2022-11-16T04:17:32.816Z,97205.91
2022-11-16T04:20:14.880Z,97197.41
2022-11-16T04:23:02.577Z,97197.19
2022-11-16T04:25:34.589Z,97205.53
2022-11-16T04:28:17.718Z,97215.59
2022-11-16T04:31:05.898Z,97208.63
2022-11-16T04:33:48.211Z,97198.91
2022-11-16T04:36:30.228Z,97201.56
2022-11-16T04:38:56.794Z,97205.22
2022-11-16T04:41:39.220Z,97209.69
2022-11-16T04:44:05.937Z,97201.56
2022-11-16T04:46:47.944Z,97196.53
2022-11-16T04:53:46.319Z,97194.22
2022-11-16T05:01:00.559Z,97192.84
2022-11-16T05:11:43.468Z,97183.50
2022-11-16T05:14:10.847Z,97178.44
2022-11-16T05:16:38.158Z,97172.63
2022-11-16T05:19:20.297Z,97172.38
2022-11-16T05:21:47.125Z,97169.75
2022-11-16T05:24:28.998Z,97169.50
2022-11-16T05:26:55.634Z,97166.44
2022-11-16T05:29:22.289Z,97168.50
2022-11-16T05:31:48.885Z,97161.19
2022-11-16T05:34:15.468Z,97161.63
2022-11-16T05:36:42.173Z,97161.63
2022-11-16T05:39:12.052Z,97161.75
2022-11-16T05:41:38.690Z,97158.31
2022-11-16T05:44:05.533Z,97156.94
2022-11-16T05:46:32.324Z,97168.03
2022-11-16T05:48:59.068Z,97168.84
2022-11-16T05:51:25.664Z,97168.03
2022-11-16T05:53:52.380Z,97172.25
2022-11-16T05:56:19.551Z,97176.16
2022-11-16T05:58:46.586Z,97180.38
2022-11-16T06:01:13.242Z,97189.53
2022-11-16T06:03:40.014Z,97199.59
2022-11-16T06:06:06.944Z,97196.97
2022-11-16T06:08:33.989Z,97192.28
2022-11-16T06:11:04.769Z,97195.94
2022-11-16T06:13:32.847Z,97200.19
2022-11-16T06:16:00.556Z,97209.69
2022-11-16T06:18:27.380Z,97209.22
2022-11-16T06:20:54.101Z,97217.69
2022-11-16T06:23:21.046Z,97223.75
2022-11-16T06:25:52.426Z,97224.53
2022-11-16T06:28:19.083Z,97222.50
2022-11-16T06:30:45.684Z,97228.56
2022-11-16T06:33:12.374Z,97223.28
2022-11-16T06:35:39.041Z,97215.16
2022-11-16T06:38:06.135Z,97219.63
2022-11-16T06:40:34.069Z,97216.78
2022-11-16T06:43:00.972Z,97214.75
2022-11-16T06:45:27.611Z,97211.09
2022-11-16T06:47:54.362Z,97215.06
2022-11-16T06:50:21.097Z,97231.56
2022-11-16T06:52:49.125Z,97237.31
2022-11-16T06:55:16.710Z,97247.47
2022-11-16T06:57:43.363Z,97243.72
2022-11-16T07:00:11.457Z,97245.63
2022-11-16T07:02:39.088Z,97245.88
2022-11-16T07:05:07.282Z,97252.97
2022-11-16T07:07:34.051Z,97256.28
2022-11-16T07:10:00.777Z,97252.97
2022-11-16T07:12:27.376Z,97259.50
2022-11-16T07:14:54.050Z,97262.38
2022-11-16T07:17:20.695Z,97266.25
2022-11-16T07:19:47.327Z,97268.66
2022-11-16T07:22:13.966Z,97270.03
2022-11-16T07:24:40.572Z,97272.91
2022-11-16T07:27:08.336Z,97275.53
2022-11-16T07:29:34.977Z,97280.56
2022-11-16T07:32:01.728Z,97288.59
2022-11-16T07:34:28.375Z,97297.03
2022-11-16T07:36:55.036Z,97306.09
2022-11-16T07:39:21.914Z,97312.50
2022-11-16T07:41:50.451Z,97309.66
2022-11-16T07:44:17.129Z,97312.50
2022-11-16T07:46:47.109Z,97318.47
2022-11-16T07:49:16.909Z,97321.66
2022-11-16T07:51:43.880Z,97320.63
2022-11-16T07:54:14.449Z,97332.31
2022-11-16T07:56:41.428Z,97331.63
2022-11-16T07:59:08.825Z,97322.38
2022-11-16T08:01:35.636Z,97338.84
2022-11-16T08:04:02.763Z,97327.88
2022-11-16T08:06:31.452Z,97332.44
2022-11-16T08:08:59.280Z,97342.06
2022-11-16T08:11:26.522Z,97339.78
2022-11-16T08:13:53.325Z,97339.78
2022-11-16T08:16:24.572Z,97344.22
2022-11-16T08:18:51.299Z,97346.63
2022-11-16T08:21:19.186Z,97351.69
2022-11-16T08:23:46.253Z,97356.13
2022-11-16T08:26:15.901Z,97351.88
2022-11-16T08:28:45.028Z,97346.97
2022-11-16T08:31:15.016Z,97348.47
2022-11-16T08:33:42.100Z,97361.03
2022-11-16T08:36:14.263Z,97357.25
2022-11-16T08:38:41.117Z,97351.44
2022-11-16T08:41:07.923Z,97356.81
2022-11-16T08:43:35.874Z,97355.44
2022-11-16T08:46:03.287Z,97353.13
2022-11-16T08:48:30.006Z,97363.25
2022-11-16T08:51:16.927Z,97367.69
2022-11-16T08:53:45.354Z,97360.84
2022-11-16T08:56:13.729Z,97360.72
2022-11-16T08:58:44.223Z,97361.50
2022-11-16T09:01:16.503Z,97370.78
2022-11-16T09:03:43.427Z,97370.56
2022-11-16T09:06:11.712Z,97366.44
2022-11-16T09:08:40.547Z,97371.25
2022-11-16T09:11:10.001Z,97368.84
2022-11-16T09:13:40.096Z,97366.53
2022-11-16T09:16:07.100Z,97370.22
2022-11-16T09:18:34.263Z,97364.94
2022-11-16T09:21:01.208Z,97363.13
2022-11-16T09:23:28.295Z,97365.53
2022-11-16T09:25:54.993Z,97367.81
2022-11-16T09:28:22.391Z,97367.72
2022-11-16T09:30:51.208Z,97369.19
2022-11-16T09:33:18.367Z,97369.78
2022-11-16T09:35:45.472Z,97366.53
2022-11-16T09:38:17.482Z,97359.47
2022-11-16T09:40:52.073Z,97359.22
2022-11-16T09:43:47.021Z,97356.47
2022-11-16T09:46:30.172Z,97351.97
2022-11-16T09:49:00.340Z,97347.63
2022-11-16T09:51:32.629Z,97345.69
2022-11-16T09:54:05.510Z,97346.38
2022-11-16T09:56:36.862Z,97345.44
2022-11-16T09:59:24.911Z,97347.41
2022-11-16T10:01:52.580Z,97341.78
2022-11-16T10:04:38.516Z,97337.66
2022-11-16T10:07:24.567Z,97332.09
2022-11-16T10:09:52.123Z,97332.75
2022-11-16T10:12:24.744Z,97325.66
2022-11-16T10:15:04.597Z,97324.50
2022-11-16T10:17:32.230Z,97326.56
2022-11-16T10:20:19.291Z,97330.00
2022-11-16T10:22:52.927Z,97322.91
2022-11-16T10:25:22.755Z,97313.66
2022-11-16T10:28:09.478Z,97306.78
2022-11-16T10:30:44.656Z,97313.66
2022-11-16T10:33:16.681Z,97306.31
2022-11-16T10:35:47.872Z,97307.56
2022-11-16T10:38:17.764Z,97309.06
2022-11-16T10:40:49.932Z,97296.94
2022-11-16T10:43:20.010Z,97309.44
2022-11-16T10:45:57.983Z,97299.22
2022-11-16T10:49:04.466Z,97297.28
2022-11-16T10:51:31.114Z,97297.94
2022-11-16T10:53:57.901Z,97296.59
2022-11-16T10:56:37.298Z,97295.13
2022-11-16T10:59:06.857Z,97298.31
2022-11-16T11:01:36.369Z,97286.75
2022-11-16T11:04:18.369Z,97295.28
2022-11-16T11:06:47.879Z,97285.00
2022-11-16T11:09:18.646Z,97290.88
2022-11-16T11:12:28.349Z,97288.00
2022-11-16T11:15:25.940Z,97282.34
2022-11-16T11:18:13.147Z,97279.25
2022-11-16T11:20:45.190Z,97277.81
2022-11-16T11:23:21.953Z,97276.56
2022-11-16T11:25:50.659Z,97277.34
2022-11-16T11:28:23.355Z,97273.34
2022-11-16T11:31:01.722Z,97272.22
2022-11-16T11:33:39.627Z,97267.41
2022-11-16T11:36:08.722Z,97261.09
2022-11-16T11:39:04.215Z,97262.94
2022-11-16T11:41:38.898Z,97253.78
2022-11-16T11:44:15.759Z,97262.47
2022-11-16T11:47:29.021Z,97252.84
2022-11-16T11:49:49.956Z,97258.53
2022-11-16T11:52:22.519Z,97257.28
2022-11-16T11:54:53.279Z,97247.34
2022-11-16T11:57:23.111Z,97242.50
2022-11-16T11:59:52.971Z,97243.91
2022-11-16T12:02:43.886Z,97237.31
2022-11-16T12:05:25.928Z,97233.31
2022-11-16T12:08:23.075Z,97231.13
2022-11-16T12:11:11.171Z,97230.34
2022-11-16T12:14:06.695Z,97226.94
2022-11-16T12:17:08.450Z,97214.25
2022-11-16T12:20:05.914Z,97224.19
2022-11-16T12:23:04.405Z,97224.91
2022-11-16T12:25:53.751Z,97219.25
2022-11-16T12:28:50.837Z,97223.59
2022-11-16T12:31:18.756Z,97217.09
2022-11-16T12:34:02.729Z,97214.22
2022-11-16T12:36:51.656Z,97208.19
2022-11-16T12:39:33.693Z,97216.63
2022-11-16T12:42:21.085Z,97212.13
2022-11-16T12:45:32.029Z,97210.44
2022-11-16T12:48:25.520Z,97209.75
2022-11-16T12:51:18.961Z,97211.25
2022-11-16T12:54:13.197Z,97215.38
2022-11-16T12:57:00.734Z,97213.97
2022-11-16T12:59:34.562Z,97208.72
2022-11-16T13:02:17.758Z,97206.44
2022-11-16T13:04:51.036Z,97213.31
2022-11-16T13:07:24.976Z,97201.41
2022-11-16T13:09:58.915Z,97205.63
2022-11-16T13:12:27.778Z,97206.97
2022-11-16T13:15:00.168Z,97202.28
2022-11-16T13:17:31.123Z,97203.44
2022-11-16T13:20:28.161Z,97205.59
2022-11-16T13:23:10.138Z,97203.69
2022-11-16T13:25:45.957Z,97202.53
2022-11-16T13:28:23.243Z,97194.53
2022-11-16T13:31:02.373Z,97202.53
2022-11-16T13:33:50.601Z,97198.06
2022-11-16T13:36:43.775Z,97205.06
2022-11-16T13:39:21.469Z,97203.91
2022-11-16T13:42:08.176Z,97207.00
2022-11-16T13:44:34.997Z,97208.06
2022-11-16T13:47:05.907Z,97209.09
2022-11-16T13:49:40.949Z,97201.97
2022-11-16T13:52:23.244Z,97202.84
2022-11-16T13:54:54.443Z,97213.06
2022-11-16T13:57:27.279Z,97213.38
2022-11-16T14:00:11.981Z,97214.63
2022-11-16T14:02:41.251Z,97225.28
2022-11-16T14:05:36.611Z,97218.84
2022-11-16T14:08:23.157Z,97214.75
2022-11-16T14:10:50.790Z,97220.38
2022-11-16T14:13:39.965Z,97215.59
2022-11-16T14:16:22.580Z,97225.44
2022-11-16T14:19:05.377Z,97226.69
2022-11-16T14:21:53.330Z,97227.84
2022-11-16T14:24:35.345Z,97229.78
2022-11-16T14:27:07.736Z,97220.03
2022-11-16T14:30:03.671Z,97218.19
2022-11-16T14:32:39.624Z,97218.13
2022-11-16T14:35:28.709Z,97222.03
2022-11-16T14:38:00.885Z,97217.44
2022-11-16T14:40:28.203Z,97219.28
2022-11-16T14:43:17.581Z,97221.31
2022-11-16T14:45:51.756Z,97216.28
2022-11-16T14:48:21.118Z,97219.97
2022-11-16T14:51:02.394Z,97220.06
2022-11-16T14:53:29.863Z,97214.25
2022-11-16T14:56:13.446Z,97215.84
2022-11-16T14:58:40.504Z,97196.16
2022-11-16T15:01:14.729Z,97208.38
2022-11-16T15:03:52.277Z,97207.34
2022-11-16T15:06:20.292Z,97212.59
2022-11-16T15:09:03.723Z,97205.31
2022-11-16T15:11:49.186Z,97205.22
2022-11-16T15:14:20.116Z,97203.72
2022-11-16T15:16:56.393Z,97198.69
2022-11-16T15:19:24.133Z,97196.44
2022-11-16T15:21:53.991Z,97194.44
2022-11-16T15:24:31.055Z,97187.16
2022-11-16T15:27:02.813Z,97194.09
2022-11-16T15:29:29.566Z,97211.59
2022-11-16T15:31:56.210Z,97211.44
2022-11-16T15:34:22.967Z,97206.97
2022-11-16T15:36:50.177Z,97195.44
2022-11-16T15:39:19.876Z,97197.00
2022-11-16T15:41:47.349Z,97198.06
2022-11-16T15:44:19.045Z,97195.47
2022-11-16T15:46:49.256Z,97199.25
2022-11-16T15:49:22.233Z,97205.00
2022-11-16T15:51:48.944Z,97195.81
2022-11-16T15:54:23.914Z,97167.88
2022-11-16T15:56:52.901Z,97147.63
2022-11-16T15:59:26.452Z,97154.72
2022-11-16T16:01:53.359Z,97168.59
2022-11-16T16:04:20.237Z,97183.28
2022-11-16T16:06:49.379Z,97196.31
2022-11-16T16:09:35.992Z,97200.81
2022-11-16T16:12:19.559Z,97210.75
2022-11-16T16:14:49.090Z,97207.56
2022-11-16T16:17:26.030Z,97211.84
2022-11-16T16:20:02.477Z,97208.88
2022-11-16T16:22:37.477Z,97204.88
2022-11-16T16:25:06.865Z,97205.22
2022-11-16T16:27:40.004Z,97206.84
2022-11-16T16:30:08.637Z,97209.34
2022-11-16T16:32:37.844Z,97203.84
2022-11-16T16:35:07.450Z,97208.09
2022-11-16T16:37:36.051Z,97207.53
2022-11-16T16:40:03.494Z,97201.47
2022-11-16T16:42:30.161Z,97186.34
2022-11-16T16:44:59.596Z,97191.16
2022-11-16T16:47:26.277Z,97209.88
2022-11-16T16:49:52.893Z,97205.63
2022-11-16T16:52:19.585Z,97205.09
2022-11-16T16:54:47.300Z,97204.28
2022-11-16T16:57:15.895Z,97204.66
2022-11-16T16:59:45.664Z,97209.13
2022-11-16T17:02:13.263Z,97205.00
2022-11-16T17:04:40.439Z,97199.16
2022-11-16T17:07:20.239Z,97208.09
2022-11-16T17:09:46.973Z,97195.84
2022-11-16T17:12:13.651Z,97198.84
2022-11-16T17:14:40.238Z,97196.66
2022-11-16T17:17:10.372Z,97198.25
2022-11-16T17:19:36.986Z,97198.00
2022-11-16T17:22:03.739Z,97187.28
2022-11-16T17:24:30.689Z,97186.69
2022-11-16T17:26:57.349Z,97182.56
2022-11-16T17:29:24.419Z,97184.06
2022-11-16T17:31:51.085Z,97186.22
2022-11-16T17:34:17.975Z,97182.00
2022-11-16T17:36:45.044Z,97183.81
2022-11-16T17:39:11.957Z,97176.28
2022-11-16T17:41:38.604Z,97173.66
2022-11-16T17:44:09.291Z,97181.19
2022-11-16T17:46:36.181Z,97181.66
2022-11-16T17:49:03.033Z,97183.25
2022-11-16T17:51:29.990Z,97179.25
2022-11-16T17:53:56.623Z,97183.94
2022-11-16T17:56:26.906Z,97182.56
2022-11-16T17:58:55.160Z,97181.06
2022-11-16T18:01:22.982Z,97179.94
2022-11-16T18:03:49.668Z,97189.69
2022-11-16T18:06:18.920Z,97185.66
2022-11-16T18:08:46.379Z,97188.06
2022-11-16T18:11:15.115Z,97184.41
2022-11-16T18:13:42.390Z,97174.66
2022-11-16T18:16:13.417Z,97180.41
2022-11-16T18:18:40.702Z,97175.69
2022-11-16T18:21:08.722Z,97174.13
2022-11-16T18:23:36.764Z,97173.06
2022-11-16T18:26:14.390Z,97172.94
2022-11-16T18:28:41.404Z,97173.50
2022-11-16T18:31:11.057Z,97174.19
2022-11-16T18:33:38.492Z,97169.03
2022-11-16T18:36:07.412Z,97166.16
2022-11-16T18:38:34.748Z,97162.63
2022-11-16T18:41:19.730Z,97163.59
2022-11-16T18:43:50.389Z,97150.28
2022-11-16T18:46:18.952Z,97151.22
2022-11-16T18:48:46.861Z,97145.16
2022-11-16T18:51:15.878Z,97146.84
2022-11-16T18:53:42.938Z,97147.69
2022-11-16T18:56:11.881Z,97142.72
2022-11-16T18:58:54.867Z,97141.81
2022-11-16T19:01:24.823Z,97138.41
2022-11-16T19:03:53.209Z,97137.47
2022-11-16T19:06:20.777Z,97142.44
2022-11-16T19:08:54.045Z,97134.84
2022-11-16T19:11:23.369Z,97133.94
2022-11-16T19:13:54.872Z,97133.13
2022-11-16T19:16:22.288Z,97127.75
2022-11-16T19:18:48.930Z,97136.25
2022-11-16T19:21:18.643Z,97133.50
2022-11-16T19:23:47.775Z,97138.41
2022-11-16T19:26:16.308Z,97133.25
2022-11-16T19:28:45.359Z,97125.34
2022-11-16T19:31:29.120Z,97139.19
2022-11-16T19:34:00.807Z,97132.91
2022-11-16T19:36:29.144Z,97129.38
2022-11-16T19:38:56.308Z,97136.44
2022-11-16T19:41:24.080Z,97135.31
2022-11-16T19:43:57.016Z,97130.28
2022-11-16T19:46:24.880Z,97131.31
2022-11-16T19:48:52.310Z,97136.00
2022-11-16T19:51:21.433Z,97134.88
2022-11-16T19:53:48.789Z,97127.53
2022-11-16T19:56:17.663Z,97121.59
2022-11-16T19:58:44.986Z,97125.84
2022-11-16T20:01:13.365Z,97128.00
2022-11-16T20:03:41.914Z,97124.13
2022-11-16T20:06:08.662Z,97128.69
2022-11-16T20:08:36.327Z,97122.28
2022-11-16T20:11:11.760Z,97126.16
2022-11-16T20:13:38.657Z,97119.41
2022-11-16T20:16:07.531Z,97122.16
2022-11-16T20:18:34.607Z,97115.41
2022-11-16T20:21:02.616Z,97113.00
2022-11-16T20:23:29.285Z,97106.97
2022-11-16T20:25:55.922Z,97101.09
2022-11-16T20:28:22.807Z,97111.31
2022-11-16T20:30:49.406Z,97111.88
2022-11-16T20:33:16.067Z,97108.22
2022-11-16T20:35:42.690Z,97100.09
2022-11-16T20:38:09.366Z,97091.53
2022-11-16T20:40:36.041Z,97090.56
2022-11-16T20:43:02.798Z,97084.75
2022-11-16T20:45:33.292Z,97080.06
2022-11-16T20:48:00.227Z,97066.59
2022-11-16T20:50:27.345Z,97063.97
2022-11-16T20:52:53.986Z,97060.50
2022-11-16T20:55:21.011Z,97068.75
2022-11-16T20:57:47.644Z,97064.50
2022-11-16T21:00:14.919Z,97059.03
2022-11-16T21:02:41.549Z,97053.53
2022-11-16T21:05:08.566Z,97055.00
2022-11-16T21:07:35.518Z,97060.03
2022-11-16T21:10:17.527Z,97063.16
2022-11-16T21:12:59.535Z,97053.66
2022-11-16T21:15:26.167Z,97056.28
2022-11-16T21:17:56.002Z,97056.63
2022-11-16T21:20:29.701Z,97072.41
2022-11-16T21:22:56.372Z,97067.72
2022-11-16T21:25:23.057Z,97072.41
2022-11-16T21:27:49.706Z,97074.91
2022-11-16T21:30:16.714Z,97072.50
2022-11-16T21:32:43.419Z,97070.09
2022-11-16T21:35:10.137Z,97075.81
2022-11-16T21:37:36.800Z,97080.94
2022-11-16T21:40:03.678Z,97081.41
2022-11-16T21:42:30.874Z,97071.34
2022-11-16T21:45:00.728Z,97074.91
2022-11-16T21:47:27.411Z,97070.78
2022-11-16T21:50:24.825Z,97064.38
2022-11-16T21:52:40.726Z,97065.41
2022-11-16T21:55:07.732Z,97070.56
2022-11-16T21:57:34.400Z,97069.88
2022-11-16T22:00:01.198Z,97087.50
2022-11-16T22:02:27.918Z,97089.56
2022-11-16T22:05:09.927Z,97089.56
2022-11-16T22:07:37.722Z,97094.22
2022-11-16T22:10:10.317Z,97095.59
2022-11-16T22:12:37.746Z,97088.75
2022-11-16T22:15:06.106Z,97091.81
2022-11-16T22:17:33.406Z,97089.19
2022-11-16T22:20:00.051Z,97090.34
2022-11-16T22:22:26.878Z,97085.53
2022-11-16T22:24:53.748Z,97089.06
2022-11-16T22:27:20.495Z,97082.78
2022-11-16T22:29:47.242Z,97084.03
2022-11-16T22:32:16.221Z,97088.72
2022-11-16T22:34:43.074Z,97093.06
2022-11-16T22:37:09.766Z,97103.03
2022-11-16T22:39:37.748Z,97092.28
2022-11-16T22:42:04.883Z,97086.91
2022-11-16T22:44:31.586Z,97091.03
2022-11-16T22:46:58.242Z,97086.81
2022-11-16T22:49:25.104Z,97079.81
2022-11-16T22:51:51.816Z,97079.69
2022-11-16T22:54:18.555Z,97075.47
2022-11-16T22:56:46.345Z,97057.25
2022-11-16T22:59:13.012Z,97063.78
2022-11-16T23:01:39.707Z,97065.06
2022-11-16T23:04:06.363Z,97060.59
2022-11-16T23:06:33.036Z,97050.31
2022-11-16T23:08:59.671Z,97056.94
2022-11-16T23:11:41.993Z,97064.00
2022-11-16T23:14:27.630Z,97057.81
2022-11-16T23:16:54.270Z,97065.50
2022-11-16T23:19:37.398Z,97064.34
2022-11-16T23:22:20.749Z,97072.72
2022-11-16T23:25:02.776Z,97072.16
2022-11-16T23:27:34.290Z,97078.88
2022-11-16T23:30:09.261Z,97083.50
2022-11-16T23:32:39.139Z,97074.78
2022-11-16T23:35:06.186Z,97078.91
2022-11-16T23:37:32.826Z,97066.34
2022-11-16T23:39:59.491Z,97056.84
2022-11-16T23:42:41.340Z,97056.72
2022-11-16T23:45:08.334Z,97043.00
2022-11-16T23:47:34.991Z,97049.31
2022-11-16T23:50:01.876Z,97043.00
2022-11-16T23:52:28.542Z,97035.44
2022-11-16T23:54:55.154Z,97034.91
2022-11-16T23:57:21.740Z,97042.47
2022-11-16T23:59:48.357Z,97025.31
